Hlavní strana
METAR-TAF:

METAR-TAF

Letiště :

Jämsä, Finsko

zeměpisná šířka: 61-51N, zeměpisná délka: 024-48E, výška: 143 m

Aktuální stav počasí

Zpráva byla vytvořena před 17 minutami, v 20:20 UTC
Jihovýchodní vítr 10 kt, proměnlivý mezi východním a jihojihovýchodním
Teplota 1°C
Vlhkost vzduchu 93%
Tlak 1012 hPa
Viditelnost: 9000 m
Zataženo ve výšce 500 ft
slabé sněžení, déšť

METAR: EFHA 122020Z AUTO 13010KT 090V160 9000 -SNRA OVC005 01/00 Q1012

Čas: 22:37 (20:37 UTC)

Předpověď počasí

Zpráva byla vytvořena před 9 hodinami a 0 minutami, v 11:37 UTC
Předpověď platná od 12 v 12 UTC do 12 v 14 UTC
Jihojihovýchodní vítr 5 kt
Viditelnost 10 km a více
Zataženo ve výšce 400 ft
Pravděpodobnost 30% :
Dočasný
od 12 v 12 UTC do 12 v 14 UTC
Viditelnost: 5000 m
kouřmo

TAF: EFHA 121137Z 1212/1214 15005KT 9999 OVC004 PROB30 TEMPO 1212/1214 5000 BR

Stav a předpovědi počasí z více než 4 000 letišť (zprávy METAR a TAF).

Červené a žluté tečky na mapě představují dostupné meteorologické stanice.

Když kurzor umístíte na tečku, zobrazí se název stanice.

Pak kliknutím zobrazíte stav a předpověď počasí.

Chcete-li změnit mapu, kliknutím na zelené tlačítko se znaménkem +mapu přiblížíte, kliknutím na zelené tlačítko se znaménkem – mapu oddálíte a kliknutím na zelené šipky přejdete na sousední mapy.


METAR-TAF: